Time;durP1;ratioP1;P1;durP2;ratioP2;P2;SDS_P1;SDS_P2;PMS_P1;PMS_P2;Temp;Humidity;BMP_temperature;BMP_pressure;BME280_temperature;BME280_humidity;BME280_pressure;Samples;Min_cycle;Max_cycle;Signal;HPM_P1;HPM_P2
2020/12/29 00:02:12;;;;;;;11.38;9.43;;;1.80;99.90;;;;;;5003640;28;20049;-80
2020/12/29 00:04:38;;;;;;;13.20;9.20;;;1.80;99.90;;;;;;5004581;28;20106;-81
2020/12/29 00:07:05;;;;;;;13.35;9.00;;;1.70;99.90;;;;;;5004696;28;20077;-81
2020/12/29 00:09:32;;;;;;;13.63;9.57;;;1.70;99.90;;;;;;5005656;28;20078;-82
2020/12/29 00:11:59;;;;;;;13.48;9.65;;;1.70;99.90;;;;;;5003041;28;20097;-81
2020/12/29 00:14:25;;;;;;;14.95;10.10;;;1.60;99.90;;;;;;5001427;28;20054;-82
2020/12/29 00:16:52;;;;;;;14.18;10.48;;;1.60;99.90;;;;;;5005562;28;20058;-81
2020/12/29 00:19:21;;;;;;;15.52;10.50;;;1.70;99.90;;;;;;5008307;28;20077;-82
2020/12/29 00:21:51;;;;;;;20.73;11.40;;;1.70;99.90;;;;;;5010983;28;20134;-82
2020/12/29 00:24:17;;;;;;;16.02;11.05;;;1.70;99.90;;;;;;5010021;28;20061;-82
2020/12/29 00:26:44;;;;;;;13.57;11.13;;;1.60;99.90;;;;;;5002920;28;20059;-83
2020/12/29 00:29:11;;;;;;;14.55;11.65;;;1.60;99.90;;;;;;4999867;28;20108;-81
2020/12/29 00:31:37;;;;;;;16.70;10.73;;;1.60;99.90;;;;;;5000692;28;20100;-83
2020/12/29 00:34:04;;;;;;;15.52;10.73;;;1.60;99.90;;;;;;5000790;28;20050;-82
2020/12/29 00:36:31;;;;;;;14.05;10.82;;;1.50;99.90;;;;;;5000572;28;20082;-81
2020/12/29 00:38:57;;;;;;;17.20;12.10;;;1.60;99.90;;;;;;4999056;28;20112;-81
2020/12/29 00:41:25;;;;;;;16.80;11.65;;;1.60;99.90;;;;;;4998085;28;20479;-82
2020/12/29 00:43:52;;;;;;;15.25;11.32;;;1.60;99.90;;;;;;4998074;28;20129;-81
2020/12/29 00:46:21;;;;;;;15.48;11.88;;;1.60;99.90;;;;;;4996639;28;20131;-82
2020/12/29 00:48:48;;;;;;;14.85;10.63;;;1.60;99.90;;;;;;4998011;28;20104;-82
2020/12/29 00:51:16;;;;;;;14.65;10.70;;;1.60;99.90;;;;;;4998410;28;20129;-82
2020/12/29 00:53:42;;;;;;;14.95;10.05;;;1.60;99.90;;;;;;4997316;28;20132;-82
2020/12/29 00:56:10;;;;;;;16.55;10.73;;;1.60;99.90;;;;;;4999512;28;20631;-83
2020/12/29 00:58:37;;;;;;;13.45;10.23;;;1.60;99.90;;;;;;4997443;28;20180;-82
2020/12/29 01:01:05;;;;;;;17.02;10.48;;;1.60;99.90;;;;;;4999294;28;20093;-83
2020/12/29 01:03:31;;;;;;;13.23;10.45;;;1.60;99.90;;;;;;4999114;28;20133;-80
2020/12/29 01:05:58;;;;;;;14.77;10.73;;;1.60;99.90;;;;;;4999452;28;20180;-82
2020/12/29 01:08:24;;;;;;;12.77;9.82;;;1.60;99.90;;;;;;5001840;28;20541;-83
2020/12/29 01:10:52;;;;;;;15.50;9.80;;;1.60;99.90;;;;;;5000441;28;20143;-82
2020/12/29 01:13:19;;;;;;;19.23;11.55;;;1.50;99.90;;;;;;5000724;28;20130;-81
2020/12/29 01:15:46;;;;;;;18.55;10.93;;;1.50;99.90;;;;;;4999071;28;20458;-82
2020/12/29 01:18:13;;;;;;;12.40;9.93;;;1.50;99.90;;;;;;4998987;28;20210;-82
2020/12/29 01:20:39;;;;;;;14.50;10.15;;;1.50;99.90;;;;;;4997751;28;20515;-81
2020/12/29 01:23:06;;;;;;;15.05;10.38;;;1.60;99.90;;;;;;4996685;28;20133;-81
2020/12/29 01:25:32;;;;;;;17.33;10.65;;;1.60;99.90;;;;;;4999896;28;20106;-79
2020/12/29 01:27:59;;;;;;;13.57;9.98;;;1.60;99.90;;;;;;4998719;28;20145;-80
2020/12/29 01:30:26;;;;;;;12.90;9.35;;;1.60;99.90;;;;;;5015497;23;20148;-80
2020/12/29 01:32:52;;;;;;;18.35;10.43;;;1.50;99.90;;;;;;5022279;28;20050;-80
2020/12/29 01:35:19;;;;;;;15.30;10.32;;;1.70;99.90;;;;;;5021291;28;20050;-79
2020/12/29 01:37:49;;;;;;;13.38;9.73;;;1.50;99.90;;;;;;5019650;28;20131;-80
2020/12/29 01:40:15;;;;;;;15.40;10.35;;;1.50;99.90;;;;;;5020718;28;20109;-82
2020/12/29 01:42:42;;;;;;;16.63;11.80;;;1.50;99.90;;;;;;5019881;28;20061;-79
2020/12/29 01:45:11;;;;;;;22.25;13.82;;;1.40;99.90;;;;;;5019722;28;20084;-79
2020/12/29 01:47:39;;;;;;;20.30;14.18;;;1.40;99.90;;;;;;5020313;28;20083;-82
2020/12/29 01:50:13;;;;;;;22.52;16.25;;;1.50;99.90;;;;;;5020937;28;20053;-79
2020/12/29 01:52:41;;;;;;;21.73;15.55;;;1.40;99.90;;;;;;5019312;28;20046;-80
2020/12/29 01:55:09;;;;;;;21.65;15.07;;;1.50;99.90;;;;;;5024776;28;20049;-81
2020/12/29 01:57:37;;;;;;;22.13;16.35;;;1.50;99.90;;;;;;5027572;28;20057;-79
2020/12/29 02:00:06;;;;;;;20.23;14.77;;;1.60;99.90;;;;;;5027412;28;20100;-82
2020/12/29 02:02:33;;;;;;;20.67;13.85;;;1.70;99.90;;;;;;5023912;28;20050;-82
2020/12/29 02:04:59;;;;;;;19.02;13.65;;;1.80;99.90;;;;;;5028626;28;20056;-80
2020/12/29 02:07:27;;;;;;;21.75;14.40;;;1.80;99.90;;;;;;5025782;28;20049;-78
2020/12/29 02:09:54;;;;;;;18.75;13.07;;;1.90;99.90;;;;;;5021494;28;20521;-80
2020/12/29 02:12:25;;;;;;;18.30;13.05;;;2.00;99.90;;;;;;5019020;28;20054;-79
2020/12/29 02:14:52;;;;;;;20.77;13.35;;;2.10;99.90;;;;;;5020111;28;20541;-82
2020/12/29 02:17:19;;;;;;;23.67;13.98;;;2.10;99.90;;;;;;5020788;28;20081;-81
2020/12/29 02:19:45;;;;;;;18.25;13.32;;;2.20;99.90;;;;;;5021491;28;20126;-80
2020/12/29 02:22:17;;;;;;;22.02;13.15;;;2.20;99.90;;;;;;5018309;28;20049;-80
2020/12/29 02:24:48;;;;;;;19.13;12.75;;;2.20;99.90;;;;;;5020077;28;20073;-80
2020/12/29 02:27:15;;;;;;;18.52;12.80;;;2.30;99.90;;;;;;5019864;28;20056;-82
2020/12/29 02:29:42;;;;;;;19.55;12.88;;;2.30;99.90;;;;;;5022086;28;20081;-79
2020/12/29 02:32:09;;;;;;;17.80;12.68;;;2.40;99.90;;;;;;5017764;28;20081;-81
2020/12/29 02:34:37;;;;;;;18.63;12.15;;;2.40;99.90;;;;;;5017544;28;20046;-79
2020/12/29 02:37:05;;;;;;;19.48;12.23;;;2.40;99.90;;;;;;5018367;28;20050;-83
2020/12/29 02:39:34;;;;;;;19.35;12.57;;;2.50;99.90;;;;;;5020247;28;20049;-81
2020/12/29 02:42:00;;;;;;;20.02;12.77;;;2.50;99.90;;;;;;5019724;28;20046;-78
2020/12/29 02:44:27;;;;;;;20.33;13.82;;;2.40;99.90;;;;;;5019106;28;20069;-79
2020/12/29 02:46:53;;;;;;;19.48;12.50;;;2.40;99.90;;;;;;5019278;28;20064;-78
2020/12/29 02:49:20;;;;;;;16.88;12.00;;;2.40;99.90;;;;;;5018023;28;20118;-79
2020/12/29 02:51:46;;;;;;;18.42;12.18;;;2.40;99.90;;;;;;5018522;28;20053;-80
2020/12/29 02:54:13;;;;;;;17.40;11.93;;;2.50;99.90;;;;;;5018974;28;20054;-81
2020/12/29 02:56:41;;;;;;;15.80;12.27;;;2.50;99.90;;;;;;5017569;28;20204;-84
2020/12/29 02:59:07;;;;;;;19.20;11.75;;;2.50;99.90;;;;;;5016980;28;20137;-79
2020/12/29 03:01:34;;;;;;;18.00;11.32;;;2.50;99.90;;;;;;5015625;28;20108;-79
2020/12/29 03:04:00;;;;;;;16.98;11.82;;;2.50;99.90;;;;;;5017503;28;20134;-80
2020/12/29 03:06:27;;;;;;;15.48;11.75;;;2.50;99.90;;;;;;5019376;28;20077;-80
2020/12/29 03:08:53;;;;;;;18.00;12.05;;;2.50;99.90;;;;;;5016293;28;20077;-79
2020/12/29 03:11:27;;;;;;;17.95;12.63;;;2.40;99.90;;;;;;5020191;28;20096;-80
2020/12/29 03:13:56;;;;;;;15.07;12.23;;;2.40;99.90;;;;;;5021802;28;20529;-79
2020/12/29 03:16:22;;;;;;;19.48;12.70;;;2.30;99.90;;;;;;5018022;28;20092;-81
2020/12/29 03:18:49;;;;;;;16.92;12.25;;;2.30;99.90;;;;;;5020900;28;20088;-82
2020/12/29 03:21:15;;;;;;;20.40;12.73;;;2.30;99.90;;;;;;5016207;28;20176;-78
2020/12/29 03:23:42;;;;;;;16.60;12.10;;;2.20;99.90;;;;;;5012483;28;20137;-77
2020/12/29 03:26:09;;;;;;;17.15;12.23;;;2.20;99.90;;;;;;5013181;28;20502;-78
2020/12/29 03:28:35;;;;;;;16.23;11.80;;;2.10;99.90;;;;;;5013566;28;20614;-78
2020/12/29 03:31:04;;;;;;;15.93;11.45;;;2.10;99.90;;;;;;5013894;28;20117;-79
2020/12/29 03:33:30;;;;;;;17.08;11.82;;;2.10;99.90;;;;;;5014542;28;20134;-79
2020/12/29 03:35:56;;;;;;;17.33;12.13;;;2.10;99.90;;;;;;5018622;28;20422;-79
2020/12/29 03:38:23;;;;;;;15.23;12.00;;;2.00;99.90;;;;;;5016963;28;20089;-79
2020/12/29 03:40:50;;;;;;;18.90;13.10;;;2.00;99.90;;;;;;5020652;28;20081;-79
2020/12/29 03:43:17;;;;;;;18.67;12.48;;;2.00;99.90;;;;;;5017208;28;20085;-78
2020/12/29 03:45:44;;;;;;;17.80;12.88;;;2.00;99.90;;;;;;5018391;28;20088;-79
2020/12/29 03:48:12;;;;;;;15.43;11.68;;;2.00;99.90;;;;;;5019919;28;20053;-80
2020/12/29 03:50:40;;;;;;;18.25;12.20;;;2.00;99.90;;;;;;5017203;28;20097;-79
2020/12/29 03:53:06;;;;;;;16.70;12.27;;;2.00;99.90;;;;;;5019381;28;20073;-80
2020/12/29 03:55:33;;;;;;;18.02;12.13;;;2.10;99.90;;;;;;5019145;28;20092;-79
2020/12/29 03:57:59;;;;;;;15.13;11.77;;;2.10;99.90;;;;;;5018806;28;20077;-82
2020/12/29 04:00:26;;;;;;;21.27;13.05;;;2.10;99.90;;;;;;5013604;28;20144;-82
2020/12/29 04:02:52;;;;;;;15.73;11.52;;;2.20;99.90;;;;;;5017449;28;20109;-80
2020/12/29 04:05:20;;;;;;;14.70;11.18;;;2.20;99.90;;;;;;5017271;28;20180;-81
2020/12/29 04:07:48;;;;;;;20.63;11.80;;;2.30;99.90;;;;;;5015456;28;20085;-81
2020/12/29 04:10:16;;;;;;;17.35;11.57;;;2.40;99.90;;;;;;5017092;28;20077;-81
2020/12/29 04:12:42;;;;;;;19.23;11.43;;;2.40;99.90;;;;;;5019412;28;20157;-82
2020/12/29 04:15:10;;;;;;;15.48;10.65;;;2.40;99.90;;;;;;5021431;28;20085;-81
2020/12/29 04:17:37;;;;;;;19.92;11.25;;;2.50;99.90;;;;;;5020510;28;20507;-80
2020/12/29 04:20:05;;;;;;;17.58;11.50;;;2.50;99.90;;;;;;5021676;28;20481;-81
2020/12/29 04:22:33;;;;;;;15.90;11.07;;;2.50;99.90;;;;;;5021093;28;20105;-80
2020/12/29 04:25:00;;;;;;;18.17;11.85;;;2.60;99.90;;;;;;5019292;28;20454;-81
2020/12/29 04:27:27;;;;;;;16.30;11.18;;;2.60;99.90;;;;;;5020975;28;20050;-79
2020/12/29 04:29:54;;;;;;;15.13;11.10;;;2.70;99.90;;;;;;5020995;28;20084;-81
2020/12/29 04:32:20;;;;;;;16.23;10.90;;;2.70;99.90;;;;;;5021270;28;20042;-81
2020/12/29 04:34:47;;;;;;;18.90;10.77;;;2.80;99.90;;;;;;5026215;28;20078;-81
2020/12/29 04:37:14;;;;;;;18.45;11.50;;;2.80;99.90;;;;;;5025210;28;20045;-80
2020/12/29 04:39:41;;;;;;;15.18;11.60;;;2.80;99.90;;;;;;5020885;28;20086;-81
2020/12/29 04:42:12;;;;;;;17.48;11.63;;;2.80;99.90;;;;;;5021184;28;20129;-79
2020/12/29 04:44:39;;;;;;;16.33;11.70;;;2.80;99.90;;;;;;5021549;28;20114;-80
2020/12/29 04:47:07;;;;;;;17.10;11.15;;;2.80;99.90;;;;;;5022030;28;20081;-82
2020/12/29 04:49:34;;;;;;;14.45;11.25;;;2.90;99.90;;;;;;5024166;28;20061;-80
2020/12/29 04:52:03;;;;;;;17.17;11.35;;;2.90;99.90;;;;;;5020349;28;20084;-80
2020/12/29 04:54:33;;;;;;;13.98;10.85;;;3.00;99.90;;;;;;5019800;28;20052;-80
2020/12/29 04:57:01;;;;;;;21.30;13.43;;;3.00;99.90;;;;;;5023606;28;20050;-81
2020/12/29 04:59:29;;;;;;;24.17;15.45;;;2.90;99.90;;;;;;5023902;28;20046;-79
2020/12/29 05:01:56;;;;;;;16.50;11.02;;;3.00;99.90;;;;;;5024731;28;20401;-81
2020/12/29 05:04:22;;;;;;;17.52;11.20;;;2.90;99.90;;;;;;5024413;28;20054;-81
2020/12/29 05:06:49;;;;;;;19.35;12.38;;;2.90;99.90;;;;;;5025989;28;20093;-79
2020/12/29 05:09:18;;;;;;;19.38;12.90;;;2.90;99.90;;;;;;5025169;28;20049;-81
2020/12/29 05:11:44;;;;;;;19.90;11.90;;;3.00;99.90;;;;;;5013765;28;20086;-81
2020/12/29 05:14:12;;;;;;;17.05;11.95;;;2.90;99.90;;;;;;5007454;28;20077;-80
2020/12/29 05:16:39;;;;;;;20.58;11.95;;;2.90;99.90;;;;;;5005146;28;20074;-84
2020/12/29 05:19:07;;;;;;;20.67;13.88;;;2.90;99.90;;;;;;5005493;28;20092;-82
2020/12/29 05:21:36;;;;;;;22.92;13.25;;;2.90;99.90;;;;;;5005487;28;20074;-84
2020/12/29 05:24:08;;;;;;;20.08;14.02;;;2.80;99.90;;;;;;5005948;28;20068;-83
2020/12/29 05:26:35;;;;;;;23.88;14.85;;;2.80;99.90;;;;;;5005737;28;20113;-82
2020/12/29 05:29:04;;;;;;;19.92;13.55;;;2.70;99.90;;;;;;5005097;28;20089;-81
2020/12/29 05:31:33;;;;;;;22.02;14.02;;;2.70;99.90;;;;;;5003717;28;20053;-81
2020/12/29 05:34:00;;;;;;;21.55;14.57;;;2.70;99.90;;;;;;5004675;28;20058;-81
2020/12/29 05:36:27;;;;;;;24.70;14.30;;;2.70;99.90;;;;;;5005157;28;20046;-81
2020/12/29 05:38:57;;;;;;;19.95;13.77;;;2.70;99.90;;;;;;5014908;28;20326;-80
2020/12/29 05:41:23;;;;;;;24.17;14.15;;;2.70;99.90;;;;;;5009251;28;20430;-80
2020/12/29 05:44:01;;;;;;;21.55;13.70;;;2.60;99.90;;;;;;5011216;28;20047;-81
2020/12/29 05:46:29;;;;;;;24.83;14.65;;;2.50;99.90;;;;;;5005488;28;20050;-81
2020/12/29 05:48:57;;;;;;;25.45;14.77;;;2.40;99.90;;;;;;5005147;28;20511;-83
2020/12/29 05:51:24;;;;;;;26.27;15.43;;;2.30;99.90;;;;;;5020573;28;20050;-82
2020/12/29 05:53:57;;;;;;;22.70;15.23;;;2.30;99.90;;;;;;5014643;28;20088;-80
2020/12/29 05:56:23;;;;;;;23.40;15.00;;;2.30;99.90;;;;;;5005887;28;20057;-82
2020/12/29 05:58:51;;;;;;;22.65;14.30;;;2.20;99.90;;;;;;5020566;28;20045;-82
2020/12/29 06:01:17;;;;;;;20.50;14.48;;;2.20;99.90;;;;;;5024583;28;20115;-81
2020/12/29 06:03:45;;;;;;;20.88;14.52;;;2.20;99.90;;;;;;5024237;28;20046;-81
2020/12/29 06:06:13;;;;;;;27.27;16.67;;;2.10;99.90;;;;;;5024626;28;20066;-82
2020/12/29 06:08:42;;;;;;;23.20;14.07;;;2.20;99.90;;;;;;5024864;28;20056;-81
2020/12/29 06:11:13;;;;;;;29.25;16.08;;;2.10;99.90;;;;;;5025878;28;20362;-80
2020/12/29 06:13:46;;;;;;;21.27;14.15;;;2.00;99.90;;;;;;5024108;28;20085;-82
2020/12/29 06:16:16;;;;;;;25.60;14.60;;;2.00;99.90;;;;;;5024919;28;20093;-81
2020/12/29 06:18:46;;;;;;;25.15;15.23;;;2.00;99.90;;;;;;5024762;28;20096;-80
2020/12/29 06:21:14;;;;;;;28.95;16.40;;;2.00;99.90;;;;;;5024086;28;20489;-80
2020/12/29 06:23:46;;;;;;;29.58;16.30;;;2.00;99.90;;;;;;5023282;28;20050;-79
2020/12/29 06:26:17;;;;;;;25.30;17.25;;;2.00;99.90;;;;;;5005523;28;20069;-81
2020/12/29 06:28:48;;;;;;;24.50;16.60;;;1.90;99.90;;;;;;5005177;28;20065;-81
2020/12/29 06:31:21;;;;;;;25.08;16.05;;;2.00;99.90;;;;;;5003368;28;20046;-81
2020/12/29 06:33:53;;;;;;;25.15;15.57;;;2.00;99.90;;;;;;5002343;28;20088;-82
2020/12/29 06:36:21;;;;;;;23.58;14.20;;;2.10;99.90;;;;;;5003202;28;20060;-79
2020/12/29 06:38:50;;;;;;;23.08;14.80;;;2.10;99.90;;;;;;5004389;28;20529;-81
2020/12/29 06:41:19;;;;;;;23.60;15.05;;;2.20;99.90;;;;;;5003153;28;20060;-80
2020/12/29 06:43:46;;;;;;;22.73;14.75;;;2.20;99.90;;;;;;5003356;28;20053;-84
2020/12/29 06:46:13;;;;;;;23.20;15.80;;;2.20;99.90;;;;;;5005366;28;20057;-83
2020/12/29 06:48:40;;;;;;;26.95;16.25;;;2.10;99.90;;;;;;5005249;28;20074;-85
2020/12/29 06:51:09;;;;;;;25.55;16.55;;;2.30;99.90;;;;;;5004934;28;20054;-83
2020/12/29 06:53:38;;;;;;;26.92;16.48;;;2.30;99.90;;;;;;5004565;28;20043;-84
2020/12/29 06:56:04;;;;;;;29.73;17.98;;;2.30;99.90;;;;;;5024083;28;20514;-79
2020/12/29 06:58:32;;;;;;;29.42;17.85;;;2.10;99.90;;;;;;5024820;28;20513;-80
2020/12/29 07:01:21;;;;;;;25.80;16.38;;;2.30;99.90;;;;;;5024996;28;20076;-84
2020/12/29 07:03:58;;;;;;;26.80;15.43;;;2.30;99.90;;;;;;5024068;28;20069;-83
2020/12/29 07:06:29;;;;;;;28.50;15.25;;;2.30;99.90;;;;;;5025275;28;20092;-83
2020/12/29 07:09:24;;;;;;;21.67;14.23;;;2.40;99.90;;;;;;5025222;28;20562;-81
2020/12/29 07:12:02;;;;;;;28.00;13.60;;;2.40;99.90;;;;;;5025505;28;20060;-84
2020/12/29 07:14:31;;;;;;;22.15;12.23;;;2.40;99.90;;;;;;5025528;28;20053;-83
2020/12/29 07:16:58;;;;;;;23.60;13.25;;;2.40;99.90;;;;;;5025877;28;20045;-83
2020/12/29 07:19:26;;;;;;;22.05;11.82;;;2.40;99.90;;;;;;5025861;28;20180;-83
2020/12/29 07:21:54;;;;;;;23.38;11.90;;;2.40;99.90;;;;;;5025222;28;20046;-82
2020/12/29 07:24:22;;;;;;;17.48;11.27;;;2.40;99.90;;;;;;5026782;28;20056;-83
2020/12/29 07:26:55;;;;;;;20.08;10.93;;;2.30;99.90;;;;;;5026424;28;20064;-85
2020/12/29 07:29:22;;;;;;;21.13;10.75;;;2.40;99.90;;;;;;5027211;28;20073;-86
2020/12/29 07:31:49;;;;;;;20.25;10.85;;;2.30;99.90;;;;;;5041648;23;20050;-81
2020/12/29 07:34:16;;;;;;;19.02;11.25;;;2.20;99.90;;;;;;5014489;28;20054;-80
2020/12/29 07:36:45;;;;;;;17.35;11.10;;;2.20;99.90;;;;;;5005090;28;20307;-81
2020/12/29 07:39:13;;;;;;;20.80;10.27;;;2.20;99.90;;;;;;5004799;28;20114;-81
2020/12/29 07:41:40;;;;;;;19.95;10.60;;;2.20;99.90;;;;;;4994885;28;20054;-80
2020/12/29 07:44:07;;;;;;;14.93;10.05;;;2.20;99.90;;;;;;4986525;28;20053;-80
2020/12/29 07:46:34;;;;;;;21.13;10.65;;;2.20;99.90;;;;;;4983165;28;20513;-80
2020/12/29 07:49:01;;;;;;;19.77;9.32;;;2.10;99.90;;;;;;4984324;28;20110;-80
2020/12/29 07:51:27;;;;;;;18.02;9.05;;;2.10;99.90;;;;;;4983683;28;20086;-80
2020/12/29 07:53:54;;;;;;;16.58;8.30;;;2.10;99.90;;;;;;4986292;28;20050;-81
2020/12/29 07:56:21;;;;;;;14.15;8.70;;;2.20;99.90;;;;;;4987759;28;20050;-81
2020/12/29 07:58:48;;;;;;;14.77;8.80;;;2.20;99.90;;;;;;4987100;28;20050;-80
2020/12/29 08:01:14;;;;;;;19.92;9.90;;;2.20;99.90;;;;;;4985512;28;20055;-81
2020/12/29 08:03:50;;;;;;;14.23;9.15;;;2.30;99.90;;;;;;4987304;28;20074;-81
2020/12/29 08:06:17;;;;;;;16.85;9.07;;;2.30;99.90;;;;;;4988957;28;20054;-81
2020/12/29 08:08:43;;;;;;;16.08;9.35;;;2.40;99.90;;;;;;4991788;28;20407;-81
2020/12/29 08:11:09;;;;;;;16.92;9.43;;;2.50;99.90;;;;;;4991899;28;20065;-80
2020/12/29 08:13:36;;;;;;;15.18;10.05;;;2.60;99.90;;;;;;4985666;28;20134;-83
2020/12/29 08:16:03;;;;;;;16.13;9.80;;;2.70;99.90;;;;;;4982300;28;20078;-83
2020/12/29 08:18:29;;;;;;;17.40;9.20;;;2.70;99.90;;;;;;4989799;28;20081;-81
2020/12/29 08:20:57;;;;;;;16.30;10.20;;;2.70;99.90;;;;;;4996916;28;20038;-80
2020/12/29 08:23:25;;;;;;;18.65;9.70;;;2.80;99.90;;;;;;4995912;28;20035;-80
2020/12/29 08:25:52;;;;;;;16.40;8.85;;;2.90;99.90;;;;;;4995420;28;20051;-80
2020/12/29 08:28:20;;;;;;;17.27;9.32;;;2.90;99.90;;;;;;4996078;28;20065;-81
2020/12/29 08:30:47;;;;;;;15.35;9.43;;;3.00;99.90;;;;;;4993076;28;20058;-80
2020/12/29 08:33:16;;;;;;;15.13;9.60;;;3.10;99.90;;;;;;4993834;28;20054;-79
2020/12/29 08:35:45;;;;;;;20.88;11.18;;;3.10;99.90;;;;;;4994326;28;20065;-79
2020/12/29 08:38:25;;;;;;;20.58;10.85;;;3.20;99.90;;;;;;4993236;28;20061;-79
2020/12/29 08:41:03;;;;;;;16.67;10.35;;;3.20;99.90;;;;;;4993853;28;20135;-80
2020/12/29 08:43:30;;;;;;;16.45;9.45;;;3.30;99.90;;;;;;4993650;28;20066;-80
2020/12/29 08:46:03;;;;;;;14.88;10.18;;;3.30;99.90;;;;;;4995079;28;20054;-80
2020/12/29 08:48:30;;;;;;;17.42;10.63;;;3.30;99.90;;;;;;4993095;28;20066;-79
2020/12/29 08:50:57;;;;;;;16.52;10.65;;;3.30;99.90;;;;;;4993232;28;20066;-80
2020/12/29 08:53:25;;;;;;;22.45;10.70;;;3.30;99.90;;;;;;4992236;28;20514;-80
2020/12/29 08:55:51;;;;;;;22.58;10.93;;;3.30;99.90;;;;;;4992381;28;20085;-80
2020/12/29 08:58:24;;;;;;;15.70;10.70;;;3.40;99.90;;;;;;4991348;28;20051;-81
2020/12/29 09:00:51;;;;;;;15.98;10.48;;;3.40;99.90;;;;;;4992427;28;20130;-80
2020/12/29 09:03:25;;;;;;;16.17;10.60;;;3.50;99.90;;;;;;4990976;28;20120;-80
2020/12/29 09:05:54;;;;;;;18.65;11.32;;;3.50;99.90;;;;;;4990096;28;20054;-79
2020/12/29 09:08:26;;;;;;;18.05;12.15;;;3.50;99.90;;;;;;4988125;28;20050;-79
2020/12/29 09:11:08;;;;;;;18.70;11.82;;;3.40;99.90;;;;;;4989101;28;20078;-79
2020/12/29 09:13:34;;;;;;;18.33;11.23;;;3.50;99.90;;;;;;4988720;28;20102;-80
2020/12/29 09:16:10;;;;;;;22.67;11.88;;;3.50;99.90;;;;;;4988841;28;20097;-79
2020/12/29 09:18:40;;;;;;;18.27;11.38;;;3.50;99.90;;;;;;4987313;28;20057;-81
2020/12/29 09:21:21;;;;;;;24.77;12.27;;;3.40;99.90;;;;;;4986146;28;20109;-81
2020/12/29 09:23:57;;;;;;;21.45;11.93;;;3.40;99.90;;;;;;4987505;28;20054;-80
2020/12/29 09:26:24;;;;;;;20.98;12.80;;;3.40;99.90;;;;;;4985781;28;20078;-81
2020/12/29 09:28:50;;;;;;;25.27;13.75;;;3.40;99.90;;;;;;4986470;28;20097;-81
2020/12/29 09:31:23;;;;;;;26.55;13.98;;;3.40;99.90;;;;;;4985312;28;20243;-80
2020/12/29 09:33:52;;;;;;;26.40;14.55;;;3.50;99.90;;;;;;4985638;28;20078;-79
2020/12/29 09:36:21;;;;;;;24.77;14.57;;;3.60;99.90;;;;;;4986633;28;20050;-80
2020/12/29 09:38:48;;;;;;;23.95;13.00;;;3.70;99.90;;;;;;4987568;28;20046;-79
2020/12/29 09:41:15;;;;;;;23.15;13.73;;;3.70;99.90;;;;;;4979074;28;20515;-76
2020/12/29 09:43:43;;;;;;;25.45;13.52;;;3.80;99.90;;;;;;4980943;28;20130;-78
2020/12/29 09:46:09;;;;;;;25.00;14.63;;;3.90;99.90;;;;;;4979321;28;20093;-78
2020/12/29 09:48:36;;;;;;;23.48;15.18;;;4.00;99.90;;;;;;4977817;28;20054;-79
2020/12/29 09:51:03;;;;;;;22.77;14.60;;;4.00;99.90;;;;;;4978629;28;20140;-80
2020/12/29 09:53:30;;;;;;;23.02;14.20;;;4.10;99.90;;;;;;4986500;28;20050;-80
2020/12/29 09:55:56;;;;;;;27.20;14.23;;;4.20;99.90;;;;;;4985189;28;20074;-79
2020/12/29 09:58:23;;;;;;;23.55;14.57;;;4.20;99.90;;;;;;4985910;28;20089;-80
2020/12/29 10:00:50;;;;;;;25.63;15.50;;;4.20;99.90;;;;;;4985735;28;20058;-81
2020/12/29 10:03:17;;;;;;;28.58;14.75;;;4.20;99.90;;;;;;4985716;28;20082;-81
2020/12/29 10:05:44;;;;;;;22.52;14.23;;;4.20;99.90;;;;;;4985939;28;20093;-82
2020/12/29 10:08:10;;;;;;;28.17;16.10;;;4.20;99.90;;;;;;4985853;28;20138;-81
2020/12/29 10:10:38;;;;;;;26.55;15.48;;;4.30;99.90;;;;;;4985282;28;20057;-80
2020/12/29 10:13:04;;;;;;;25.83;15.13;;;4.30;99.90;;;;;;4985134;28;20503;-81
2020/12/29 10:15:30;;;;;;;28.40;15.60;;;4.30;99.90;;;;;;4985544;28;20102;-80
2020/12/29 10:17:57;;;;;;;23.98;14.73;;;4.30;99.90;;;;;;4993755;28;20054;-80
2020/12/29 10:20:23;;;;;;;27.25;15.02;;;4.30;99.90;;;;;;4992634;28;20089;-78
2020/12/29 10:22:50;;;;;;;24.13;15.07;;;4.30;99.90;;;;;;4987155;28;20078;-79
2020/12/29 10:25:16;;;;;;;23.00;15.23;;;4.30;99.90;;;;;;5000600;28;20053;-79
2020/12/29 10:27:46;;;;;;;24.35;15.50;;;4.40;99.90;;;;;;4999769;28;20057;-80
2020/12/29 10:30:13;;;;;;;23.42;15.95;;;4.30;99.90;;;;;;5000743;28;20050;-81
2020/12/29 10:32:40;;;;;;;25.02;15.25;;;4.40;99.90;;;;;;5000699;28;20486;-80
2020/12/29 10:35:07;;;;;;;25.05;15.48;;;4.40;99.90;;;;;;5002363;28;20089;-80
2020/12/29 10:37:34;;;;;;;27.58;15.65;;;4.50;99.90;;;;;;5001951;28;20082;-79
2020/12/29 10:40:00;;;;;;;26.73;16.33;;;4.50;99.90;;;;;;5000525;28;20042;-80
2020/12/29 10:42:27;;;;;;;28.40;16.75;;;4.50;99.90;;;;;;4998582;28;20057;-78
2020/12/29 10:44:54;;;;;;;29.77;16.92;;;4.60;99.90;;;;;;4999258;28;20074;-81
2020/12/29 10:47:20;;;;;;;27.20;16.48;;;4.70;99.90;;;;;;4998627;28;20050;-80
2020/12/29 10:49:47;;;;;;;27.52;16.35;;;4.70;99.90;;;;;;4997131;28;20117;-80
2020/12/29 10:52:13;;;;;;;22.67;15.98;;;4.80;99.90;;;;;;4996166;28;20125;-79
2020/12/29 10:54:39;;;;;;;24.88;16.60;;;4.90;99.90;;;;;;4995711;28;20123;-78
2020/12/29 10:57:06;;;;;;;27.23;17.00;;;5.00;99.90;;;;;;4995809;28;20149;-78
2020/12/29 10:59:32;;;;;;;26.48;16.85;;;5.00;99.90;;;;;;4998073;28;20054;-84
2020/12/29 11:01:59;;;;;;;21.88;15.45;;;5.10;99.90;;;;;;4999799;28;20085;-79
2020/12/29 11:04:26;;;;;;;26.70;15.57;;;5.10;99.90;;;;;;4995886;28;20066;-81
2020/12/29 11:06:53;;;;;;;28.35;16.35;;;5.20;99.90;;;;;;4994657;28;20054;-79
2020/12/29 11:09:19;;;;;;;28.90;16.10;;;5.20;99.90;;;;;;4993971;28;20082;-79
2020/12/29 11:11:47;;;;;;;22.80;15.02;;;5.30;99.90;;;;;;4994079;28;20129;-80
2020/12/29 11:14:13;;;;;;;22.33;15.35;;;5.30;99.90;;;;;;4993494;28;20124;-78
2020/12/29 11:16:40;;;;;;;25.20;15.68;;;5.30;99.90;;;;;;4983131;28;20081;-81
2020/12/29 11:19:07;;;;;;;24.80;15.15;;;5.30;99.90;;;;;;4985637;28;20126;-78
2020/12/29 11:21:33;;;;;;;24.35;15.73;;;5.30;99.90;;;;;;4989165;28;20058;-79
2020/12/29 11:24:00;;;;;;;25.23;15.98;;;5.30;99.90;;;;;;4991933;28;20169;-79
2020/12/29 11:26:26;;;;;;;27.77;16.02;;;5.40;99.90;;;;;;4980276;28;20058;-81
2020/12/29 11:28:52;;;;;;;23.90;16.30;;;5.30;99.90;;;;;;4979186;28;20086;-81
2020/12/29 11:31:21;;;;;;;24.02;15.63;;;5.20;99.90;;;;;;4977558;28;20054;-80
2020/12/29 11:33:48;;;;;;;28.42;18.38;;;5.20;99.90;;;;;;4978718;28;20126;-80
2020/12/29 11:36:17;;;;;;;29.05;16.00;;;5.20;99.90;;;;;;4978664;28;20058;-82
2020/12/29 11:38:44;;;;;;;21.80;14.27;;;5.30;99.90;;;;;;4978593;28;20074;-80
2020/12/29 11:41:11;;;;;;;26.80;16.20;;;5.40;99.90;;;;;;4978656;28;20090;-81
2020/12/29 11:43:37;;;;;;;24.45;14.32;;;5.50;99.90;;;;;;4993750;28;20112;-79
2020/12/29 11:46:05;;;;;;;22.38;14.32;;;5.60;99.90;;;;;;5002008;28;20129;-80
2020/12/29 11:48:31;;;;;;;22.77;15.27;;;5.70;99.90;;;;;;4998292;28;20050;-81
2020/12/29 11:50:57;;;;;;;24.95;13.60;;;5.70;99.90;;;;;;4998829;28;20074;-79
2020/12/29 11:53:25;;;;;;;27.15;14.32;;;5.70;99.90;;;;;;4999237;28;20074;-80
2020/12/29 11:55:51;;;;;;;22.60;13.68;;;5.70;99.90;;;;;;4999544;28;20085;-81
2020/12/29 11:58:18;;;;;;;24.00;13.70;;;5.70;99.90;;;;;;4999206;28;20089;-81
2020/12/29 12:00:44;;;;;;;27.85;14.77;;;5.70;99.90;;;;;;4997693;28;20054;-78
2020/12/29 12:03:11;;;;;;;20.33;12.70;;;5.70;99.90;;;;;;4997394;28;20073;-78
2020/12/29 12:05:37;;;;;;;21.08;11.75;;;5.80;99.90;;;;;;4998296;28;20092;-79
2020/12/29 12:08:04;;;;;;;19.38;12.10;;;5.80;99.90;;;;;;4998326;28;20143;-77
2020/12/29 12:10:31;;;;;;;24.88;12.30;;;5.80;99.90;;;;;;5003074;28;20046;-81
2020/12/29 12:12:57;;;;;;;16.13;11.13;;;5.90;99.90;;;;;;5003724;28;20046;-80
2020/12/29 12:15:24;;;;;;;24.70;11.93;;;6.00;99.90;;;;;;4996668;28;20082;-79
2020/12/29 12:17:50;;;;;;;17.77;12.10;;;6.20;99.90;;;;;;4997264;28;20514;-79
2020/12/29 12:20:16;;;;;;;19.50;11.77;;;6.30;99.90;;;;;;4996931;28;20097;-77
2020/12/29 12:23:01;;;;;;;20.10;11.75;;;6.30;99.90;;;;;;4998380;28;20089;-80
2020/12/29 12:25:27;;;;;;;16.20;10.80;;;6.40;99.90;;;;;;4988410;28;20100;-80
2020/12/29 12:27:54;;;;;;;16.98;10.80;;;6.40;99.90;;;;;;4990409;28;20088;-82
2020/12/29 12:30:21;;;;;;;18.38;10.27;;;6.30;99.90;;;;;;4998922;28;20085;-78
2020/12/29 12:32:47;;;;;;;15.70;9.50;;;6.30;99.90;;;;;;4999746;28;20043;-79
2020/12/29 12:35:13;;;;;;;15.75;9.90;;;6.20;99.90;;;;;;4992891;28;20086;-81
2020/12/29 12:37:40;;;;;;;14.18;8.77;;;6.20;99.90;;;;;;4990354;28;20112;-82
2020/12/29 12:40:06;;;;;;;16.50;9.90;;;6.20;99.90;;;;;;4993397;28;20074;-81
2020/12/29 12:42:32;;;;;;;16.77;9.95;;;6.20;99.90;;;;;;4996979;28;20082;-81